KCOE

Coeur D'alene - Pappy Boyington Field Airport

Coeur D'alene, Idaho, USA
KCOE 181139Z 1812/1912 02009KT P6SM SCT080 OVC120 FM181500 02015G20KT P6SM VCSH BKN070 OVC100 FM182000 04010KT P6SM -RA BKN060 OVC080 FM190100 04007KT P6SM VCSH OVC080 FM190600 03005KT P6SM OVC080
Issued Valid From Valid To
Jun-18 @ 11:39 UTC
(2 hours ago)
Jun-18 @ 12:00 UTC
(an hour ago)
Jun-19 @ 12:00 UTC
(in 23 hours)
Jun-18 @ 12:00 to Jun-18 @ 15:00
KCOE 181139Z 1812/1912 02009KT P6SM SCT080 OVC120
Wind Visibility Clouds
20° at 9 knots Greater than 6 miles
  • Scattered at 8,000' AGL
  • Overcast at 12,000' AGL
From Jun-18 @ 15:00 to Jun-18 @ 20:00
FM181500 02015G20KT P6SM VCSH BKN070 OVC100
Wind Visibility Clouds
20° at 15 knots
 Gusting to 20 knots
Greater than 6 miles
  • Broken at 7,000' AGL
  • Overcast at 10,000' AGL
From Jun-18 @ 20:00 to Jun-19 @ 01:00
FM182000 04010KT P6SM -RA BKN060 OVC080
Wind Visibility Clouds Conditions
40° at 10 knots Greater than 6 miles
  • Broken at 6,000' AGL
  • Overcast at 8,000' AGL
  • Light Rain
From Jun-19 @ 01:00 to Jun-19 @ 06:00
FM190100 04007KT P6SM VCSH OVC080
Wind Visibility Clouds
40° at 7 knots Greater than 6 miles
  • Overcast at 8,000' AGL
From Jun-19 @ 06:00 to Jun-19 @ 12:00
FM190600 03005KT P6SM OVC080
Wind Visibility Clouds
30° at 5 knots Greater than 6 miles
  • Overcast at 8,000' AGL
KCOE 181139Z 1812/1912 02009KT P6SM SCT080 OVC120 FM181500 02015G20KT P6SM VCSH BKN070 OVC100 FM182000 04010KT P6SM -RA BKN060 OVC080 FM190100 04007KT P6SM VCSH OVC080 FM190600 03005KT P6SM OVC080
Issued Jun-18 @ 11:39 UTC
(2 hours ago)
Valid From Jun-18 @ 12:00 UTC
(an hour ago)
Valid To Jun-19 @ 12:00 UTC
(in 23 hours)
Jun-18 @ 12:00 - Jun-18 @ 15:00
Wind Visibility
20° at 9 knots Greater than 6 miles
Clouds
  • Scattered at 8,000' AGL
  • Overcast at 12,000' AGL
From Jun-18 @ 15:00 - Jun-18 @ 20:00
Wind Visibility
20° at 15 knots
 Gusting to 20 knots
Greater than 6 miles
Clouds
  • Broken at 7,000' AGL
  • Overcast at 10,000' AGL
From Jun-18 @ 20:00 - Jun-19 @ 01:00
Wind Visibility
40° at 10 knots Greater than 6 miles
Clouds
  • Broken at 6,000' AGL
  • Overcast at 8,000' AGL
Conditions
  • Light Rain
From Jun-19 @ 01:00 - Jun-19 @ 06:00
Wind Visibility
40° at 7 knots Greater than 6 miles
Clouds
  • Overcast at 8,000' AGL
From Jun-19 @ 06:00 - Jun-19 @ 12:00
Wind Visibility
30° at 5 knots Greater than 6 miles
Clouds
  • Overcast at 8,000' AGL